logo
Search for airport 
image banner adimage banner adimage banner ad
image banner ad

MREC - El Carmen De Siquirres

Located in Siquirres, Costa Rica

ICAO - MREC, IATA -

Data provided by Airmate  

General information

Coordinates: N10°12'7" W83°28'20"
Elevation is 56 feet MSL.
 
View others Airports in Limon

Operational data

Special qualification required
Current time UTC:
Current local time:
Weather at : MRLM - Limon Intl ( 56 km )
METAR: MRLM 202300Z 06008KT 9999 FEW020 BKN120 29/24 A2985
TAF: TAF COR MRLM 201725Z 2018/2118 05006KT 9999 FEW020 TX31/2021Z TN23/2111Z BECMG 2100/2102 24005KT BECMG 2115/2118 05006KT
View NOTAMs / SUP AIP / TFR affecting this airport [VIEW]
Communications frequencies: [VIEW]

Runways:

RWY identifierQFULength (ft)Width (ft)SurfaceLDA (ft)
06328139UNK
24328139UNK

Airport contact information

Address: Siquirres Costa Rica

Satellite view of MREC